Time;durP1;ratioP1;P1;durP2;ratioP2;P2;SDS_P1;SDS_P2;PMS_P1;PMS_P2;Temp;Humidity;BMP_temperature;BMP_pressure;BME280_temperature;BME280_humidity;BME280_pressure;Samples;Min_cycle;Max_cycle;Signal;HPM_P1;HPM_P2
2021/06/04 00:04:12;;;;;;;6.35;5.15;;;16.30;99.90;;;;;;12386244;28;20061;-42
2021/06/04 00:10:28;;;;;;;9.85;5.72;;;16.20;99.90;;;;;;12384443;28;20054;-46
2021/06/04 00:16:34;;;;;;;10.18;5.60;;;16.10;99.90;;;;;;12394653;28;20061;-43
2021/06/04 00:22:36;;;;;;;8.95;5.78;;;16.00;99.90;;;;;;12385411;28;20057;-43
2021/06/04 00:28:38;;;;;;;10.95;5.72;;;16.00;99.90;;;;;;12395549;28;20471;-42
2021/06/04 00:34:40;;;;;;;6.75;6.00;;;16.10;99.90;;;;;;12390028;28;20046;-42
2021/06/04 00:40:46;;;;;;;8.18;6.80;;;16.10;99.90;;;;;;12397051;28;20061;-45
2021/06/04 00:46:48;;;;;;;12.63;8.20;;;16.10;99.90;;;;;;12389619;28;20095;-42
2021/06/04 00:52:50;;;;;;;74.20;10.70;;;16.00;99.90;;;;;;12387035;28;20054;-43
2021/06/04 00:58:53;;;;;;;75.13;12.88;;;16.00;99.90;;;;;;12391337;28;20053;-42
2021/06/04 01:04:56;;;;;;;17.15;11.95;;;16.00;99.90;;;;;;12389359;28;20088;-43
2021/06/04 01:11:12;;;;;;;30.73;12.32;;;15.90;99.90;;;;;;12387312;28;20057;-43
2021/06/04 01:17:29;;;;;;;17.10;10.90;;;15.90;99.90;;;;;;12383790;28;20061;-43
2021/06/04 01:24:02;;;;;;;33.05;11.38;;;15.70;99.90;;;;;;12392729;28;20049;-43
2021/06/04 01:30:31;;;;;;;50.50;12.52;;;15.70;99.90;;;;;;12394618;28;20050;-42
2021/06/04 01:37:13;;;;;;;41.83;12.32;;;15.70;99.90;;;;;;12394276;28;20050;-43
2021/06/04 01:43:22;;;;;;;16.67;12.45;;;15.80;99.90;;;;;;12406062;28;20140;-43
2021/06/04 01:49:28;;;;;;;12.85;10.35;;;15.80;99.90;;;;;;12402213;28;20084;-43
2021/06/04 01:55:33;;;;;;;17.65;11.15;;;15.70;99.90;;;;;;12397651;28;20058;-42
2021/06/04 02:01:42;;;;;;;18.05;9.55;;;15.40;99.90;;;;;;12397620;28;20137;-42
2021/06/04 02:07:45;;;;;;;12.35;10.20;;;15.30;99.90;;;;;;12399761;28;20091;-42
2021/06/04 02:13:49;;;;;;;10.55;8.45;;;15.40;99.90;;;;;;12398353;28;20058;-42
2021/06/04 02:20:28;;;;;;;18.40;10.57;;;15.40;99.90;;;;;;12399400;28;20456;-42
2021/06/04 02:26:39;;;;;;;20.38;9.23;;;15.40;99.90;;;;;;12402027;28;20077;-44
2021/06/04 02:32:52;;;;;;;16.27;9.05;;;15.30;99.90;;;;;;12398999;28;20091;-43
2021/06/04 02:38:58;;;;;;;;;;;14.90;99.90;;;;;;12401905;28;20050;-46
2021/06/04 02:45:17;;;;;;;15.70;9.18;;;14.90;99.90;;;;;;12397454;28;20341;-44
2021/06/04 02:51:32;;;;;;;22.48;7.80;;;14.80;99.90;;;;;;12397007;28;20066;-43
2021/06/04 02:57:37;;;;;;;10.35;8.38;;;14.80;99.90;;;;;;12398687;28;20939;-42
2021/06/04 03:03:39;;;;;;;;;;;14.80;99.90;;;;;;12397733;28;20043;-43
2021/06/04 03:09:44;;;;;;;16.88;8.40;;;14.80;99.90;;;;;;12399362;28;20067;-44
2021/06/04 03:15:49;;;;;;;15.38;8.35;;;14.80;99.90;;;;;;12392307;28;20104;-45
2021/06/04 03:21:55;;;;;;;14.00;8.35;;;14.90;99.90;;;;;;12396578;28;20083;-43
2021/06/04 03:27:57;;;;;;;10.35;8.32;;;14.90;99.90;;;;;;12396516;28;20045;-43
2021/06/04 03:34:01;;;;;;;13.60;7.07;;;14.90;99.90;;;;;;12393491;28;20050;-42
2021/06/04 03:40:07;;;;;;;12.00;7.93;;;14.90;99.90;;;;;;12393148;28;20099;-42
2021/06/04 03:46:09;;;;;;;14.18;9.07;;;15.00;99.90;;;;;;12387606;28;20080;-43
2021/06/04 03:52:16;;;;;;;16.00;8.20;;;15.00;99.90;;;;;;12392805;28;20695;-42
2021/06/04 03:58:19;;;;;;;11.55;9.60;;;14.90;99.90;;;;;;12396197;28;20054;-44
2021/06/04 04:04:21;;;;;;;15.13;10.05;;;14.90;99.90;;;;;;12388002;28;20062;-43
2021/06/04 04:10:25;;;;;;;16.10;9.57;;;15.00;99.90;;;;;;12390176;28;20453;-43
2021/06/04 04:16:27;;;;;;;15.25;9.10;;;15.10;99.90;;;;;;12394959;28;20100;-45
2021/06/04 04:22:31;;;;;;;14.32;10.02;;;15.20;99.90;;;;;;12394531;28;20465;-43
2021/06/04 04:28:36;;;;;;;13.30;11.95;;;15.50;99.90;;;;;;12387124;28;20132;-42
2021/06/04 04:34:43;;;;;;;14.35;10.85;;;15.80;99.90;;;;;;12386598;28;20061;-43
2021/06/04 04:40:45;;;;;;;9.55;8.55;;;15.90;99.90;;;;;;12385732;28;20054;-44
2021/06/04 04:46:47;;;;;;;11.48;10.27;;;16.20;99.90;;;;;;12386450;28;20115;-44
2021/06/04 04:52:49;;;;;;;16.20;11.55;;;16.20;99.90;;;;;;12383198;28;20534;-43
2021/06/04 04:58:51;;;;;;;12.32;11.02;;;16.30;99.90;;;;;;12385948;28;20115;-42
2021/06/04 05:04:53;;;;;;;11.70;10.27;;;16.30;99.90;;;;;;12388544;28;20054;-46
2021/06/04 05:10:56;;;;;;;12.75;10.65;;;16.40;99.90;;;;;;12384432;28;20184;-43
2021/06/04 05:17:00;;;;;;;12.68;11.45;;;16.30;99.90;;;;;;12385052;28;20056;-43
2021/06/04 05:23:04;;;;;;;15.32;13.73;;;16.20;99.90;;;;;;12377374;28;20060;-44
2021/06/04 05:29:06;;;;;;;64.65;15.32;;;16.20;99.90;;;;;;12379356;28;20050;-43
2021/06/04 05:35:09;;;;;;;32.92;14.52;;;16.30;99.90;;;;;;12383453;28;20790;-43
2021/06/04 05:41:11;;;;;;;95.38;15.15;;;16.50;99.90;;;;;;12387372;28;20486;-46
2021/06/04 05:47:14;;;;;;;108.55;13.38;;;16.60;99.90;;;;;;12385202;28;20050;-44
2021/06/04 05:53:18;;;;;;;68.80;14.10;;;16.70;99.90;;;;;;12385529;28;20050;-43
2021/06/04 05:59:20;;;;;;;;;;;16.80;99.90;;;;;;12387096;28;20116;-42
2021/06/04 06:05:22;;;;;;;20.52;11.23;;;16.70;99.90;;;;;;12382775;28;19925;-42
2021/06/04 06:11:26;;;;;;;97.15;15.95;;;16.90;99.90;;;;;;12379537;28;20049;-42
2021/06/04 06:17:28;;;;;;;19.58;14.38;;;17.10;99.90;;;;;;12382111;28;20566;-43
2021/06/04 06:23:33;;;;;;;17.92;15.50;;;17.20;99.90;;;;;;12391485;28;20103;-43
2021/06/04 06:29:37;;;;;;;18.90;16.90;;;17.20;99.90;;;;;;12394964;28;20049;-46
2021/06/04 06:35:41;;;;;;;;;;;17.40;99.90;;;;;;12393877;28;20054;-43
2021/06/04 06:41:45;;;;;;;19.53;14.53;;;17.60;99.90;;;;;;12392163;28;19929;-43
2021/06/04 06:47:48;;;;;;;16.85;15.15;;;17.60;99.90;;;;;;12390864;28;20073;-49
2021/06/04 06:53:49;;;;;;;16.08;14.38;;;17.70;99.90;;;;;;12394006;28;20096;-42
2021/06/04 06:59:51;;;;;;;17.77;15.88;;;17.70;99.90;;;;;;12394324;28;20105;-43
2021/06/04 07:05:55;;;;;;;20.40;18.13;;;17.90;99.90;;;;;;12389917;28;20434;-43
2021/06/04 07:11:57;;;;;;;17.38;15.63;;;18.00;99.90;;;;;;12396031;28;20096;-44
2021/06/04 07:17:59;;;;;;;19.10;17.10;;;18.10;99.90;;;;;;12382329;28;20188;-42
2021/06/04 07:24:01;;;;;;;21.13;18.90;;;18.20;99.90;;;;;;12387120;28;20050;-43
2021/06/04 07:30:08;;;;;;;25.90;20.52;;;18.30;99.90;;;;;;12386776;28;21065;-45
2021/06/04 07:36:17;;;;;;;19.60;17.27;;;18.50;99.90;;;;;;12392282;28;20085;-42
2021/06/04 07:42:19;;;;;;;19.55;17.30;;;18.60;99.90;;;;;;12388976;28;20049;-43
2021/06/04 07:48:21;;;;;;;19.67;16.33;;;18.80;99.90;;;;;;12396506;28;20595;-42
2021/06/04 07:54:27;;;;;;;19.85;14.98;;;18.90;99.90;;;;;;12391238;28;20073;-44
2021/06/04 08:00:30;;;;;;;18.65;16.73;;;19.10;99.90;;;;;;12391822;28;20046;-43
2021/06/04 08:06:33;;;;;;;22.10;18.33;;;19.30;99.90;;;;;;12392421;28;20046;-42
2021/06/04 08:12:37;;;;;;;14.75;13.23;;;19.50;99.90;;;;;;12390545;28;20085;-43
2021/06/04 08:18:40;;;;;;;17.98;14.30;;;19.60;99.90;;;;;;12388925;28;20054;-43
2021/06/04 08:24:42;;;;;;;18.55;13.90;;;19.90;99.90;;;;;;12396679;28;20128;-44
2021/06/04 08:30:46;;;;;;;18.60;12.30;;;20.10;99.90;;;;;;12390960;28;20114;-42
2021/06/04 08:36:48;;;;;;;18.30;14.20;;;20.30;99.90;;;;;;12390618;28;20062;-43
2021/06/04 08:42:54;;;;;;;18.67;15.85;;;20.40;99.90;;;;;;12385083;28;20401;-44
2021/06/04 08:49:15;;;;;;;17.50;14.32;;;20.40;99.90;;;;;;12384810;28;20056;-43
2021/06/04 08:55:35;;;;;;;18.20;15.00;;;20.70;99.90;;;;;;12386912;28;20161;-42
2021/06/04 09:01:44;;;;;;;21.13;17.33;;;20.70;99.90;;;;;;12388047;28;20068;-43
2021/06/04 09:07:49;;;;;;;24.17;18.10;;;20.70;99.90;;;;;;12384991;28;20050;-42
2021/06/04 09:13:51;;;;;;;16.75;14.25;;;20.90;99.90;;;;;;12378464;28;20104;-43
2021/06/04 09:20:02;;;;;;;19.00;16.63;;;21.00;99.90;;;;;;12383518;28;20054;-43
2021/06/04 09:26:07;;;;;;;20.27;16.98;;;21.40;99.90;;;;;;12385610;28;20052;-43
2021/06/04 09:32:24;;;;;;;19.92;17.33;;;21.70;99.90;;;;;;12380953;28;20446;-43
2021/06/04 09:38:49;;;;;;;18.30;16.08;;;21.80;99.90;;;;;;12382398;28;20099;-42
2021/06/04 09:45:10;;;;;;;16.38;14.73;;;21.60;99.90;;;;;;12381190;28;20050;-47
2021/06/04 09:51:34;;;;;;;16.42;14.27;;;22.10;99.90;;;;;;12380829;28;20459;-43
2021/06/04 09:57:37;;;;;;;;;;;22.00;99.90;;;;;;12385286;28;20062;-45
2021/06/04 10:03:41;;;;;;;19.63;17.17;;;21.80;99.90;;;;;;12390011;28;20386;-43
2021/06/04 10:09:48;;;;;;;21.98;18.13;;;21.80;99.90;;;;;;12384729;28;20053;-43
2021/06/04 10:15:53;;;;;;;20.88;17.80;;;22.00;99.90;;;;;;12387457;28;20054;-43
2021/06/04 10:22:25;;;;;;;18.88;16.10;;;22.30;99.90;;;;;;12386367;28;20045;-43
2021/06/04 10:28:47;;;;;;;17.63;14.43;;;22.30;99.90;;;;;;12382835;28;20197;-44
2021/06/04 10:35:04;;;;;;;12.85;11.45;;;22.20;99.90;;;;;;12408260;28;20054;-44
2021/06/04 10:41:13;;;;;;;17.02;13.98;;;22.30;99.90;;;;;;12386086;28;20050;-43
2021/06/04 10:47:51;;;;;;;17.85;15.57;;;22.10;99.90;;;;;;12391492;28;20074;-46
2021/06/04 10:54:06;;;;;;;19.45;16.17;;;22.10;99.90;;;;;;12378148;28;20441;-43
2021/06/04 11:00:16;;;;;;;16.63;14.00;;;22.50;99.90;;;;;;12397581;28;20686;-44
2021/06/04 11:06:55;;;;;;;15.95;14.18;;;23.00;99.90;;;;;;12384478;28;21139;-43
2021/06/04 11:13:09;;;;;;;22.35;17.73;;;23.20;99.90;;;;;;12384094;28;20450;-44
2021/06/04 11:19:50;;;;;;;15.93;14.23;;;22.70;99.90;;;;;;12387192;28;20112;-44
2021/06/04 11:26:01;;;;;;;19.73;14.07;;;23.50;99.90;;;;;;12378867;28;20105;-43
2021/06/04 11:32:12;;;;;;;19.20;13.75;;;23.80;99.90;;;;;;12390300;28;20045;-46
2021/06/04 11:38:47;;;;;;;15.25;12.38;;;24.30;99.90;;;;;;12384251;28;20050;-46
2021/06/04 11:44:53;;;;;;;17.38;15.27;;;25.00;99.90;;;;;;12380669;28;20974;-45
2021/06/04 11:51:17;;;;;;;12.55;10.52;;;25.10;99.90;;;;;;12382333;28;20129;-44
2021/06/04 11:57:40;;;;;;;13.02;10.02;;;25.00;99.90;;;;;;12386324;28;20115;-43
2021/06/04 12:03:46;;;;;;;;;;;24.10;99.90;;;;;;12387385;28;20958;-44
2021/06/04 12:09:49;;;;;;;17.67;13.35;;;24.00;99.90;;;;;;12387932;28;20012;-43
2021/06/04 12:15:51;;;;;;;17.13;13.15;;;23.70;99.90;;;;;;12379822;28;20046;-44
2021/06/04 12:22:00;;;;;;;21.40;14.85;;;24.10;99.90;;;;;;12384544;28;20054;-43
2021/06/04 12:28:06;;;;;;;18.50;13.95;;;24.20;99.90;;;;;;12382561;28;20054;-44
2021/06/04 12:34:11;;;;;;;23.23;15.18;;;24.00;99.90;;;;;;12381639;28;20058;-43
2021/06/04 12:40:28;;;;;;;15.77;12.20;;;23.30;99.90;;;;;;12378399;28;20050;-44
2021/06/04 12:46:30;;;;;;;17.33;10.38;;;24.10;99.90;;;;;;12382372;28;20572;-44
2021/06/04 12:52:32;;;;;;;15.57;12.15;;;24.70;99.90;;;;;;12377578;28;20530;-43
2021/06/04 12:58:42;;;;;;;21.83;14.10;;;24.60;99.90;;;;;;12383740;28;20103;-45
2021/06/04 13:04:54;;;;;;;13.90;9.52;;;24.50;99.90;;;;;;12383754;28;20513;-45
2021/06/04 13:10:59;;;;;;;14.13;10.82;;;24.30;99.90;;;;;;12383704;28;20454;-43
2021/06/04 13:17:22;;;;;;;20.10;12.32;;;24.90;99.90;;;;;;12378369;28;20054;-44
2021/06/04 13:23:28;;;;;;;;;;;25.10;99.90;;;;;;12381187;28;20181;-44
2021/06/04 13:29:42;;;;;;;14.20;11.60;;;25.70;99.90;;;;;;12380172;28;19928;-44
2021/06/04 13:35:46;;;;;;;18.30;12.43;;;25.10;99.90;;;;;;12381622;28;20050;-43
2021/06/04 13:41:59;;;;;;;15.45;10.50;;;25.00;99.90;;;;;;12379937;28;20046;-44
2021/06/04 13:48:08;;;;;;;9.75;8.40;;;25.80;99.90;;;;;;12377475;28;20050;-43
2021/06/04 13:54:23;;;;;;;17.65;11.65;;;26.80;99.90;;;;;;12374411;28;20069;-44
2021/06/04 14:00:31;;;;;;;10.75;8.32;;;27.10;99.90;;;;;;12374089;28;20053;-43
2021/06/04 14:06:34;;;;;;;14.13;10.35;;;27.60;99.90;;;;;;12384963;28;20450;-43
2021/06/04 14:12:37;;;;;;;14.02;8.25;;;26.20;99.90;;;;;;12378293;28;20421;-44
2021/06/04 14:18:51;;;;;;;20.50;9.03;;;26.00;99.90;;;;;;12376813;28;20062;-44
2021/06/04 14:24:54;;;;;;;19.75;10.43;;;25.70;99.90;;;;;;12381079;28;20302;-43
2021/06/04 14:31:05;;;;;;;14.13;10.90;;;25.20;99.90;;;;;;12377168;28;20054;-44
2021/06/04 14:37:29;;;;;;;12.90;9.70;;;25.00;99.90;;;;;;12376387;28;20293;-44
2021/06/04 14:43:31;;;;;;;13.30;10.18;;;25.10;99.90;;;;;;12385127;28;20050;-44
2021/06/04 14:49:33;;;;;;;16.47;9.00;;;25.70;99.90;;;;;;12385478;28;20136;-43
2021/06/04 14:55:35;;;;;;;11.25;9.90;;;26.20;99.90;;;;;;12404560;28;20089;-44
2021/06/04 15:01:41;;;;;;;11.57;9.48;;;26.00;99.90;;;;;;12382461;28;20053;-42
2021/06/04 15:07:43;;;;;;;13.57;9.07;;;24.90;99.90;;;;;;12389640;28;20557;-43
2021/06/04 15:13:45;;;;;;;11.80;8.93;;;25.00;99.90;;;;;;12386027;28;20104;-43
2021/06/04 15:19:47;;;;;;;9.40;8.13;;;25.20;99.90;;;;;;12391144;28;20789;-43
2021/06/04 15:25:49;;;;;;;10.98;8.98;;;25.70;99.90;;;;;;12389583;28;20621;-43
2021/06/04 15:31:52;;;;;;;16.20;7.38;;;25.10;99.90;;;;;;12384615;28;20046;-43
2021/06/04 15:37:55;;;;;;;9.90;7.60;;;24.90;99.90;;;;;;12378792;28;20062;-44
2021/06/04 15:43:58;;;;;;;10.02;7.38;;;24.50;99.90;;;;;;12380209;28;20078;-43
2021/06/04 15:50:00;;;;;;;10.75;7.78;;;24.30;99.90;;;;;;12411471;28;20050;-42
2021/06/04 15:56:03;;;;;;;9.85;6.55;;;24.00;99.90;;;;;;12383856;28;20058;-43
2021/06/04 16:02:05;;;;;;;10.35;7.60;;;25.10;99.90;;;;;;12389617;28;20161;-44
2021/06/04 16:08:08;;;;;;;14.37;8.87;;;25.80;99.90;;;;;;12388238;28;20054;-43
2021/06/04 16:14:10;;;;;;;11.68;9.00;;;25.40;99.90;;;;;;12377499;28;20440;-43
2021/06/04 16:20:14;;;;;;;12.68;8.82;;;25.20;99.90;;;;;;12383261;28;20058;-43
2021/06/04 16:26:24;;;;;;;12.13;8.65;;;25.60;99.90;;;;;;12383590;28;20053;-43
2021/06/04 16:32:27;;;;;;;10.93;8.63;;;25.80;99.90;;;;;;12379129;28;20138;-43
2021/06/04 16:38:29;;;;;;;15.48;8.18;;;26.20;99.90;;;;;;12383104;28;20053;-44
2021/06/04 16:44:31;;;;;;;13.77;8.40;;;25.40;99.90;;;;;;12376152;28;20070;-43
2021/06/04 16:50:33;;;;;;;14.03;9.40;;;24.90;99.90;;;;;;12378576;28;20054;-43
2021/06/04 16:56:36;;;;;;;12.23;8.43;;;24.60;99.90;;;;;;12380760;28;20172;-43
2021/06/04 17:02:38;;;;;;;12.23;8.93;;;24.40;99.90;;;;;;12371136;28;20176;-43
2021/06/04 17:08:40;;;;;;;11.10;7.72;;;24.20;99.90;;;;;;12381433;28;20749;-42
2021/06/04 17:14:42;;;;;;;10.23;7.03;;;24.00;99.90;;;;;;12378280;28;20080;-43
2021/06/04 17:20:45;;;;;;;10.73;6.97;;;23.90;99.90;;;;;;12371410;28;20119;-43
2021/06/04 17:26:49;;;;;;;10.23;7.93;;;23.90;99.90;;;;;;12380659;28;20157;-44
2021/06/04 17:32:51;;;;;;;11.48;7.53;;;23.90;99.90;;;;;;12377703;28;20541;-45
2021/06/04 17:38:54;;;;;;;9.18;7.60;;;23.90;99.90;;;;;;12381372;28;20935;-45
2021/06/04 17:44:56;;;;;;;10.10;7.32;;;23.90;99.90;;;;;;12378740;28;20050;-42
2021/06/04 17:50:59;;;;;;;9.82;7.45;;;23.90;99.90;;;;;;12369089;28;20406;-43
2021/06/04 17:57:00;;;;;;;10.70;7.18;;;24.00;99.90;;;;;;12371419;28;21316;-44
2021/06/04 18:03:04;;;;;;;10.73;7.15;;;24.00;99.90;;;;;;12379977;28;20742;-43
2021/06/04 18:09:07;;;;;;;8.70;7.00;;;24.20;99.90;;;;;;12380237;28;20054;-44
2021/06/04 18:15:11;;;;;;;10.50;7.55;;;23.80;99.90;;;;;;12395793;28;20087;-44
2021/06/04 18:21:14;;;;;;;11.45;7.45;;;23.60;99.90;;;;;;12396033;28;20141;-44
2021/06/04 18:27:16;;;;;;;9.18;7.78;;;23.50;99.90;;;;;;12397347;28;20054;-43
2021/06/04 18:33:19;;;;;;;10.30;7.28;;;23.50;99.90;;;;;;12397212;28;20081;-43
2021/06/04 18:39:22;;;;;;;13.18;8.27;;;23.20;99.90;;;;;;12393692;28;20051;-46
2021/06/04 18:45:27;;;;;;;12.98;8.88;;;23.10;99.90;;;;;;12396293;28;20051;-44
2021/06/04 18:51:32;;;;;;;14.25;9.30;;;22.70;99.90;;;;;;12396759;28;20087;-46
2021/06/04 18:57:35;;;;;;;12.55;8.68;;;22.60;99.90;;;;;;12397898;28;20152;-47
2021/06/04 19:03:40;;;;;;;11.43;9.27;;;22.40;99.90;;;;;;12396600;28;20096;-44
2021/06/04 19:09:42;;;;;;;14.27;10.32;;;22.40;99.90;;;;;;12390975;28;21417;-45
2021/06/04 19:15:44;;;;;;;11.30;9.73;;;22.20;99.90;;;;;;12387584;28;20116;-47
2021/06/04 19:21:46;;;;;;;22.98;7.95;;;22.10;99.90;;;;;;12391019;28;20152;-44
2021/06/04 19:27:47;;;;;;;7.40;4.47;;;20.40;99.90;;;;;;12390539;28;20104;-43
2021/06/04 19:33:50;;;;;;;9.50;3.30;;;20.40;99.90;;;;;;12399043;28;20072;-43
2021/06/04 19:39:53;;;;;;;4.60;2.63;;;20.10;99.90;;;;;;12397557;28;20149;-42
2021/06/04 19:45:54;;;;;;;8.38;3.65;;;19.30;99.90;;;;;;12391613;28;20348;-42
2021/06/04 19:51:59;;;;;;;14.25;3.85;;;19.50;99.90;;;;;;12392282;28;20169;-43
2021/06/04 19:58:02;;;;;;;12.60;5.35;;;19.50;99.90;;;;;;12394034;28;20058;-45
2021/06/04 20:04:04;;;;;;;15.65;4.88;;;19.40;99.90;;;;;;12397669;28;20052;-45
2021/06/04 20:10:08;;;;;;;11.20;4.20;;;19.30;99.90;;;;;;12391930;28;20609;-43
2021/06/04 20:16:10;;;;;;;17.98;4.85;;;19.20;99.90;;;;;;12389862;28;20104;-44
2021/06/04 20:22:12;;;;;;;14.68;4.70;;;19.10;99.90;;;;;;12392348;28;20057;-46
2021/06/04 20:28:18;;;;;;;16.55;8.77;;;19.30;99.90;;;;;;12388984;28;20046;-45
2021/06/04 20:34:20;;;;;;;15.27;6.90;;;19.20;99.90;;;;;;12396592;28;20138;-46
2021/06/04 20:40:24;;;;;;;15.50;9.57;;;19.20;99.90;;;;;;12386130;28;20532;-42
2021/06/04 20:46:27;;;;;;;;;;;19.20;99.90;;;;;;12391357;28;20137;-43
2021/06/04 20:52:30;;;;;;;17.38;12.73;;;19.10;99.90;;;;;;12388447;28;19925;-48
2021/06/04 20:58:33;;;;;;;14.05;12.55;;;19.30;99.90;;;;;;12386789;28;20422;-43
2021/06/04 21:04:36;;;;;;;14.25;12.07;;;19.30;99.90;;;;;;12387631;28;20054;-42
2021/06/04 21:10:38;;;;;;;16.75;12.82;;;19.20;99.90;;;;;;12390950;28;20115;-43
2021/06/04 21:16:41;;;;;;;19.52;13.60;;;19.10;99.90;;;;;;12387820;28;20058;-44
2021/06/04 21:22:44;;;;;;;23.83;13.30;;;19.10;99.90;;;;;;12392016;28;20073;-44
2021/06/04 21:28:46;;;;;;;19.45;12.48;;;18.80;99.90;;;;;;12394407;28;20482;-45
2021/06/04 21:34:50;;;;;;;17.80;14.25;;;18.70;99.90;;;;;;12389714;28;20504;-43
2021/06/04 21:40:52;;;;;;;;;;;18.60;99.90;;;;;;12388253;28;20137;-44
2021/06/04 21:46:54;;;;;;;17.55;14.18;;;18.70;99.90;;;;;;12386768;28;20611;-45
2021/06/04 21:52:57;;;;;;;22.92;13.70;;;19.00;99.90;;;;;;12407286;28;20069;-45
2021/06/04 21:58:59;;;;;;;15.73;13.10;;;18.90;99.90;;;;;;12397598;28;20051;-44
2021/06/04 22:05:01;;;;;;;16.30;13.30;;;19.00;99.90;;;;;;12396563;28;20141;-43
2021/06/04 22:11:05;;;;;;;15.57;12.32;;;19.10;99.90;;;;;;12396505;28;20050;-45
2021/06/04 22:17:07;;;;;;;19.38;13.43;;;19.00;99.90;;;;;;12397624;28;20059;-47
2021/06/04 22:23:11;;;;;;;25.35;13.85;;;18.90;99.90;;;;;;12398086;28;20957;-46
2021/06/04 22:29:13;;;;;;;15.95;14.25;;;19.00;99.90;;;;;;12396175;28;20158;-43
2021/06/04 22:35:18;;;;;;;25.55;14.80;;;19.10;99.90;;;;;;12398193;28;20469;-44
2021/06/04 22:41:22;;;;;;;19.25;14.15;;;18.80;99.90;;;;;;12393536;28;20145;-42
2021/06/04 22:47:24;;;;;;;24.58;14.30;;;18.90;99.90;;;;;;12395734;28;20125;-43
2021/06/04 22:53:27;;;;;;;25.10;16.67;;;18.80;99.90;;;;;;12393496;28;20096;-43
2021/06/04 22:59:29;;;;;;;21.92;18.00;;;18.80;99.90;;;;;;12391813;28;20065;-44
2021/06/04 23:05:35;;;;;;;29.40;20.10;;;18.30;99.90;;;;;;12392013;28;20048;-42
2021/06/04 23:11:37;;;;;;;26.88;23.98;;;18.40;99.90;;;;;;12391956;28;20089;-44
2021/06/04 23:17:40;;;;;;;30.35;23.90;;;18.20;99.90;;;;;;12395031;28;20584;-43
2021/06/04 23:23:48;;;;;;;24.97;22.27;;;18.20;99.90;;;;;;12394043;28;20505;-45
2021/06/04 23:29:50;;;;;;;31.35;24.83;;;18.40;99.90;;;;;;12395091;28;20635;-43
2021/06/04 23:35:52;;;;;;;31.80;25.10;;;18.20;99.90;;;;;;12388720;28;20053;-43
2021/06/04 23:41:56;;;;;;;30.67;24.52;;;18.20;99.90;;;;;;12391031;28;20042;-45
2021/06/04 23:47:58;;;;;;;27.67;24.80;;;18.20;99.90;;;;;;12388237;28;20057;-43
2021/06/04 23:54:00;;;;;;;28.35;25.05;;;18.30;99.90;;;;;;12390064;28;20088;-42
